createdAt,value
2022-09-11T00:02:17.780Z,98.31
2022-09-11T00:04:47.470Z,99.50
2022-09-11T00:07:17.104Z,100.00
2022-09-11T00:09:49.331Z,98.86
2022-09-11T00:12:18.957Z,100.00
2022-09-11T00:14:48.607Z,99.03
2022-09-11T00:17:18.694Z,97.61
2022-09-11T00:19:48.431Z,97.21
2022-09-11T00:22:18.117Z,97.61
2022-09-11T00:24:50.478Z,98.88
2022-09-11T00:27:20.487Z,99.68
2022-09-11T00:29:50.108Z,97.35
2022-09-11T00:32:20.237Z,99.28
2022-09-11T00:34:50.028Z,99.48
2022-09-11T00:37:19.704Z,98.62
2022-09-11T00:39:52.955Z,98.11
2022-09-11T00:42:22.748Z,98.29
2022-09-11T00:45:04.925Z,97.97
2022-09-11T00:47:34.775Z,96.47
2022-09-11T00:50:13.394Z,98.90
2022-09-11T00:52:53.115Z,97.41
2022-09-11T00:55:27.787Z,97.44
2022-09-11T00:58:02.122Z,99.59
2022-09-11T01:00:32.093Z,98.18
2022-09-11T01:03:03.294Z,98.90
2022-09-11T01:05:35.416Z,99.37
2022-09-11T01:08:06.508Z,99.27
2022-09-11T01:10:45.119Z,98.43
2022-09-11T01:13:22.231Z,99.79
2022-09-11T01:16:04.418Z,100.00
2022-09-11T01:18:41.299Z,100.00
2022-09-11T01:21:41.042Z,98.90
2022-09-11T01:24:26.280Z,99.08
2022-09-11T01:27:27.333Z,99.79
2022-09-11T01:30:01.973Z,98.87
2022-09-11T01:32:43.145Z,99.62
2022-09-11T01:35:18.725Z,98.68
2022-09-11T01:37:56.500Z,98.59
2022-09-11T01:40:31.539Z,99.08
2022-09-11T01:43:09.691Z,97.78
2022-09-11T01:45:43.637Z,98.85
2022-09-11T01:48:18.716Z,98.21
2022-09-11T01:50:50.516Z,98.73
2022-09-11T01:53:23.194Z,99.42
2022-09-11T01:55:59.506Z,98.00
2022-09-11T01:58:36.488Z,99.00
2022-09-11T02:01:08.477Z,98.75
2022-09-11T02:03:42.584Z,99.09
2022-09-11T02:06:16.785Z,99.00
2022-09-11T02:08:50.237Z,99.80
2022-09-11T02:11:21.403Z,99.56
2022-09-11T02:14:01.555Z,100.00
2022-09-11T02:16:42.824Z,98.67
2022-09-11T02:19:15.760Z,99.82
2022-09-11T02:21:47.915Z,100.00
2022-09-11T02:24:18.306Z,100.00
2022-09-11T02:26:51.199Z,100.00
2022-09-11T02:29:24.561Z,100.00
2022-09-11T02:31:55.049Z,98.93
2022-09-11T02:34:29.954Z,100.00
2022-09-11T02:37:13.919Z,100.00
2022-09-11T02:40:03.257Z,100.00
2022-09-11T02:42:45.799Z,100.00
2022-09-11T02:45:35.821Z,99.53
2022-09-11T02:48:26.447Z,100.00
2022-09-11T02:51:02.796Z,100.00
2022-09-11T02:53:43.626Z,100.00
2022-09-11T02:56:19.838Z,100.00
2022-09-11T02:58:55.347Z,100.00
2022-09-11T03:01:28.050Z,100.00
2022-09-11T03:03:57.836Z,100.00
2022-09-11T03:06:29.513Z,100.00
2022-09-11T03:08:59.159Z,100.00
2022-09-11T03:11:29.115Z,100.00
2022-09-11T03:13:59.264Z,100.00
2022-09-11T03:16:31.591Z,100.00
2022-09-11T03:19:01.280Z,100.00
2022-09-11T03:21:31.068Z,100.00
2022-09-11T03:24:00.750Z,100.00
2022-09-11T03:26:32.060Z,100.00
2022-09-11T03:29:01.726Z,100.00
2022-09-11T03:31:38.548Z,100.00
2022-09-11T03:34:09.245Z,100.00
2022-09-11T03:36:38.998Z,100.00
2022-09-11T03:39:09.387Z,100.00
2022-09-11T03:41:39.058Z,100.00
2022-09-11T03:44:08.752Z,100.00
2022-09-11T03:46:41.042Z,100.00
2022-09-11T03:49:10.726Z,100.00
2022-09-11T03:51:40.402Z,100.00
2022-09-11T03:54:10.240Z,100.00
2022-09-11T03:56:39.939Z,100.00
2022-09-11T03:59:09.611Z,100.00
2022-09-11T04:01:41.898Z,100.00
2022-09-11T04:04:11.620Z,100.00
2022-09-11T04:06:41.312Z,100.00
2022-09-11T04:09:11.105Z,100.00
2022-09-11T04:11:41.443Z,100.00
2022-09-11T04:14:11.714Z,100.00
2022-09-11T04:16:44.086Z,100.00
2022-09-11T04:19:14.854Z,100.00
2022-09-11T04:21:44.523Z,100.00
2022-09-11T04:24:15.431Z,100.00
2022-09-11T04:26:45.360Z,100.00
2022-09-11T04:29:14.992Z,100.00
2022-09-11T04:31:47.673Z,100.00
2022-09-11T04:34:17.308Z,100.00
2022-09-11T04:36:46.976Z,100.00
2022-09-11T04:39:16.904Z,100.00
2022-09-11T04:41:46.666Z,100.00
2022-09-11T04:44:16.750Z,100.00
2022-09-11T04:46:48.960Z,100.00
2022-09-11T04:49:18.915Z,100.00
2022-09-11T04:51:48.995Z,100.00
2022-09-11T04:54:21.348Z,100.00
2022-09-11T04:56:51.696Z,100.00
2022-09-11T04:59:23.974Z,100.00
2022-09-11T05:01:56.411Z,100.00
2022-09-11T05:04:26.629Z,100.00
2022-09-11T05:06:56.380Z,100.00
2022-09-11T05:09:26.816Z,100.00
2022-09-11T05:11:57.106Z,100.00
2022-09-11T05:14:28.349Z,100.00
2022-09-11T05:17:01.596Z,100.00
2022-09-11T05:19:31.357Z,100.00
2022-09-11T05:22:00.952Z,100.00
2022-09-11T05:24:30.529Z,100.00
2022-09-11T05:27:01.375Z,100.00
2022-09-11T05:29:32.762Z,100.00
2022-09-11T05:32:06.133Z,100.00
2022-09-11T05:34:35.778Z,100.00
2022-09-11T05:37:05.608Z,100.00
2022-09-11T05:39:35.461Z,100.00
2022-09-11T05:42:05.200Z,100.00
2022-09-11T05:44:36.937Z,100.00
2022-09-11T05:47:09.376Z,100.00
2022-09-11T05:49:39.078Z,100.00
2022-09-11T05:52:09.965Z,100.00
2022-09-11T05:54:39.650Z,100.00
2022-09-11T05:57:09.264Z,100.00
2022-09-11T05:59:38.935Z,100.00
2022-09-11T06:02:13.413Z,100.00
2022-09-11T06:04:43.127Z,100.00
2022-09-11T06:07:12.792Z,100.00
2022-09-11T06:09:42.386Z,100.00
2022-09-11T06:12:12.545Z,100.00
2022-09-11T06:14:44.036Z,100.00
2022-09-11T06:17:16.231Z,100.00
2022-09-11T06:19:45.877Z,100.00
2022-09-11T06:22:15.642Z,100.00
2022-09-11T06:24:45.242Z,100.00
2022-09-11T06:27:15.083Z,100.00
2022-09-11T06:29:45.073Z,100.00
2022-09-11T06:32:18.200Z,100.00
2022-09-11T06:34:47.856Z,100.00
2022-09-11T06:37:17.592Z,100.00
2022-09-11T06:39:47.257Z,100.00
2022-09-11T06:42:16.894Z,100.00
2022-09-11T06:44:50.536Z,100.00
2022-09-11T06:47:23.441Z,100.00
2022-09-11T06:49:53.108Z,100.00
2022-09-11T06:52:22.760Z,100.00
2022-09-11T06:54:53.358Z,100.00
2022-09-11T06:57:22.970Z,100.00
2022-09-11T06:59:52.744Z,100.00
2022-09-11T07:02:25.638Z,100.00
2022-09-11T07:04:55.506Z,100.00
2022-09-11T07:07:25.135Z,100.00
2022-09-11T07:09:54.823Z,100.00
2022-09-11T07:12:24.464Z,100.00
2022-09-11T07:14:54.138Z,100.00
2022-09-11T07:17:26.473Z,100.00
2022-09-11T07:19:56.163Z,100.00
2022-09-11T07:22:26.213Z,100.00
2022-09-11T07:24:56.460Z,100.00
2022-09-11T07:27:26.546Z,100.00
2022-09-11T07:29:56.313Z,100.00
2022-09-11T07:32:29.246Z,100.00
2022-09-11T07:34:58.940Z,100.00
2022-09-11T07:37:28.583Z,100.00
2022-09-11T07:39:58.256Z,100.00
2022-09-11T07:42:29.034Z,100.00
2022-09-11T07:44:58.879Z,100.00
2022-09-11T07:47:31.222Z,100.00
2022-09-11T07:50:00.851Z,99.16
2022-09-11T07:52:30.566Z,98.30
2022-09-11T07:55:01.498Z,98.04
2022-09-11T07:57:32.987Z,98.92
2022-09-11T08:00:02.655Z,97.80
2022-09-11T08:02:34.945Z,96.27
2022-09-11T08:05:04.700Z,96.84
2022-09-11T08:07:34.356Z,95.92
2022-09-11T08:10:26.071Z,93.15
2022-09-11T08:12:56.881Z,94.09
2022-09-11T08:15:29.158Z,93.04
2022-09-11T08:18:01.492Z,94.12
2022-09-11T08:20:31.289Z,93.35
2022-09-11T08:23:01.032Z,94.33
2022-09-11T08:25:31.409Z,94.46
2022-09-11T08:28:01.711Z,94.34
2022-09-11T08:30:31.592Z,93.07
2022-09-11T08:33:03.996Z,92.97
2022-09-11T08:35:33.723Z,91.43
2022-09-11T08:38:03.356Z,91.42
2022-09-11T08:40:34.268Z,89.45
2022-09-11T08:43:05.484Z,88.27
2022-09-11T08:45:38.121Z,88.28
2022-09-11T08:48:12.363Z,87.79
2022-09-11T08:50:45.014Z,88.42
2022-09-11T08:53:18.866Z,87.91
2022-09-11T08:55:52.491Z,87.57
2022-09-11T08:58:32.101Z,87.81
2022-09-11T09:01:10.883Z,87.80
2022-09-11T09:04:01.933Z,86.22
2022-09-11T09:06:50.136Z,86.62
2022-09-11T09:09:32.981Z,86.56
2022-09-11T09:12:16.122Z,84.19
2022-09-11T09:15:05.560Z,82.95
2022-09-11T09:17:41.709Z,82.51
2022-09-11T09:20:21.198Z,81.76
2022-09-11T09:22:56.201Z,82.67
2022-09-11T09:25:28.097Z,84.44
2022-09-11T09:28:02.040Z,84.59
2022-09-11T09:30:37.402Z,86.13
2022-09-11T09:33:27.420Z,87.13
2022-09-11T09:36:00.889Z,86.67
2022-09-11T09:38:33.633Z,86.92
2022-09-11T09:41:36.947Z,85.15
2022-09-11T09:44:19.616Z,84.48
2022-09-11T09:46:51.734Z,83.37
2022-09-11T09:49:26.396Z,84.28
2022-09-11T09:52:04.171Z,85.09
2022-09-11T09:54:37.142Z,84.91
2022-09-11T09:57:10.460Z,84.18
2022-09-11T09:59:44.666Z,82.03
2022-09-11T10:02:14.795Z,82.46
2022-09-11T10:04:44.505Z,80.75
2022-09-11T10:07:24.547Z,81.33
2022-09-11T10:10:03.794Z,80.48
2022-09-11T10:12:33.771Z,81.50
2022-09-11T10:15:06.693Z,78.34
2022-09-11T10:17:40.563Z,76.35
2022-09-11T10:20:26.877Z,77.74
2022-09-11T10:22:59.212Z,77.52
2022-09-11T10:25:30.271Z,73.69
2022-09-11T10:28:06.692Z,72.08
2022-09-11T10:30:39.321Z,66.52
2022-09-11T10:33:19.387Z,66.99
2022-09-11T10:35:54.527Z,67.75
2022-09-11T10:38:32.354Z,68.79
2022-09-11T10:41:11.036Z,68.07
2022-09-11T10:43:49.376Z,71.24
2022-09-11T10:46:39.693Z,73.69
2022-09-11T10:49:21.884Z,78.25
2022-09-11T10:52:03.679Z,80.11
2022-09-11T10:54:56.271Z,83.18
2022-09-11T10:57:30.573Z,83.35
2022-09-11T11:00:09.095Z,85.74
2022-09-11T11:02:41.763Z,84.33
2022-09-11T11:05:20.941Z,83.68
2022-09-11T11:08:26.354Z,83.24
2022-09-11T11:11:16.139Z,79.71
2022-09-11T11:14:09.130Z,74.52
2022-09-11T11:16:49.967Z,69.32
2022-09-11T11:19:36.100Z,67.89
2022-09-11T11:22:17.204Z,64.68
2022-09-11T11:25:00.613Z,61.14
2022-09-11T11:27:54.347Z,62.53
2022-09-11T11:30:26.919Z,59.37
2022-09-11T11:33:26.399Z,59.73
2022-09-11T11:36:05.424Z,61.97
2022-09-11T11:38:43.701Z,63.81
2022-09-11T11:41:19.261Z,66.59
2022-09-11T11:43:55.636Z,68.72
2022-09-11T11:46:31.450Z,67.47
2022-09-11T11:49:04.809Z,66.35
2022-09-11T11:51:41.842Z,63.33
2022-09-11T11:54:20.476Z,61.20
2022-09-11T11:56:53.575Z,58.50
2022-09-11T11:59:32.845Z,58.42
2022-09-11T12:02:05.961Z,56.25
2022-09-11T12:04:43.814Z,55.90
2022-09-11T12:07:19.584Z,56.54
2022-09-11T12:09:51.555Z,56.67
2022-09-11T12:12:22.350Z,56.45
2022-09-11T12:14:58.171Z,54.94
2022-09-11T12:17:31.251Z,55.61
2022-09-11T12:20:17.462Z,55.92
2022-09-11T12:22:48.804Z,54.46
2022-09-11T12:26:06.928Z,56.07
2022-09-11T12:28:38.104Z,55.51
2022-09-11T12:31:12.273Z,54.98
2022-09-11T12:33:54.693Z,55.88
2022-09-11T12:36:36.282Z,54.44
2022-09-11T12:39:17.779Z,55.71
2022-09-11T12:41:48.089Z,54.47
2022-09-11T12:44:35.385Z,53.73
2022-09-11T12:47:20.509Z,54.70
2022-09-11T12:49:58.823Z,56.41
2022-09-11T12:52:36.460Z,56.80
2022-09-11T12:55:23.363Z,58.12
2022-09-11T12:57:53.598Z,57.05
2022-09-11T13:00:26.625Z,58.90
2022-09-11T13:03:01.290Z,60.55
2022-09-11T13:05:36.576Z,60.58
2022-09-11T13:08:10.483Z,62.79
2022-09-11T13:10:42.079Z,62.97
2022-09-11T13:13:44.795Z,63.69
2022-09-11T13:16:22.098Z,64.07
2022-09-11T13:18:55.073Z,63.29
2022-09-11T13:21:26.578Z,64.32
2022-09-11T13:23:56.877Z,65.82
2022-09-11T13:26:31.455Z,65.86
2022-09-11T13:29:02.825Z,67.47
2022-09-11T13:31:36.611Z,67.40
2022-09-11T13:34:18.042Z,67.12
2022-09-11T13:36:52.385Z,67.83
2022-09-11T13:39:28.018Z,68.41
2022-09-11T13:42:03.391Z,67.95
2022-09-11T13:44:42.620Z,68.01
2022-09-11T13:47:21.911Z,67.12
2022-09-11T13:49:56.943Z,67.68
2022-09-11T13:52:29.520Z,66.34
2022-09-11T13:55:03.512Z,66.53
2022-09-11T13:57:34.854Z,65.65
2022-09-11T14:00:05.138Z,65.33
2022-09-11T14:02:52.705Z,65.39
2022-09-11T14:05:27.906Z,65.39
2022-09-11T14:08:04.828Z,66.17
2022-09-11T14:10:47.228Z,65.32
2022-09-11T14:13:23.481Z,64.16
2022-09-11T14:15:56.985Z,63.52
2022-09-11T14:18:31.852Z,64.03
2022-09-11T14:21:08.100Z,63.74
2022-09-11T14:23:45.779Z,64.63
2022-09-11T14:26:17.914Z,65.25
2022-09-11T14:29:01.040Z,64.58
2022-09-11T14:31:36.973Z,62.61
2022-09-11T14:34:15.684Z,62.75
2022-09-11T14:36:52.878Z,62.11
2022-09-11T14:39:29.067Z,62.27
2022-09-11T14:41:59.636Z,62.90
2022-09-11T14:44:32.274Z,61.39
2022-09-11T14:47:01.994Z,61.96
2022-09-11T14:49:32.222Z,61.83
2022-09-11T14:52:04.879Z,61.70
2022-09-11T14:54:34.507Z,61.83
2022-09-11T14:57:04.290Z,60.54
2022-09-11T14:59:33.914Z,59.46
2022-09-11T15:02:04.133Z,59.89
2022-09-11T15:04:34.026Z,60.12
2022-09-11T15:07:06.962Z,59.44
2022-09-11T15:09:37.752Z,59.10
2022-09-11T15:12:08.221Z,59.64
2022-09-11T15:14:55.685Z,59.15
2022-09-11T15:17:28.717Z,58.67
2022-09-11T15:19:59.637Z,59.15
2022-09-11T15:22:31.937Z,59.33
2022-09-11T15:25:02.051Z,60.02
2022-09-11T15:27:31.822Z,59.35
2022-09-11T15:30:01.495Z,59.20
2022-09-11T15:32:31.600Z,60.21
2022-09-11T15:35:01.933Z,60.39
2022-09-11T15:37:34.202Z,60.84
2022-09-11T15:40:04.238Z,60.54
2022-09-11T15:42:39.703Z,60.90
2022-09-11T15:45:13.129Z,61.38
2022-09-11T15:47:43.016Z,59.90
2022-09-11T15:50:18.253Z,59.51
2022-09-11T15:52:50.534Z,60.84
2022-09-11T15:55:20.399Z,60.16
2022-09-11T15:57:50.220Z,60.55
2022-09-11T16:00:20.053Z,61.97
2022-09-11T16:02:49.703Z,62.22
2022-09-11T16:05:19.458Z,63.42
2022-09-11T16:07:51.705Z,63.49
2022-09-11T16:10:21.567Z,63.70
2022-09-11T16:12:54.454Z,63.27
2022-09-11T16:15:26.520Z,63.96
2022-09-11T16:17:56.581Z,63.79
2022-09-11T16:20:26.245Z,62.37
2022-09-11T16:22:58.424Z,63.67
2022-09-11T16:25:28.195Z,63.94
2022-09-11T16:28:00.765Z,64.43
2022-09-11T16:30:43.139Z,64.06
2022-09-11T16:33:14.288Z,63.55
2022-09-11T16:35:44.934Z,64.11
2022-09-11T16:38:17.688Z,63.67
2022-09-11T16:40:47.389Z,62.55
2022-09-11T16:43:21.249Z,62.98
2022-09-11T16:45:54.712Z,65.37
2022-09-11T16:48:25.540Z,66.30
2022-09-11T16:50:56.163Z,64.20
2022-09-11T16:53:32.051Z,65.59
2022-09-11T16:56:02.342Z,65.56
2022-09-11T16:58:32.622Z,65.77
2022-09-11T17:01:02.343Z,66.57
2022-09-11T17:03:32.026Z,66.79
2022-09-11T17:06:01.835Z,67.35
2022-09-11T17:08:34.306Z,67.59
2022-09-11T17:11:05.888Z,67.87
2022-09-11T17:13:35.624Z,68.40
2022-09-11T17:16:06.906Z,69.12
2022-09-11T17:18:37.160Z,69.10
2022-09-11T17:21:09.272Z,68.95
2022-09-11T17:23:42.094Z,68.18
2022-09-11T17:26:14.122Z,68.92
2022-09-11T17:28:44.957Z,69.95
2022-09-11T17:31:16.081Z,71.35
2022-09-11T17:33:46.229Z,71.75
2022-09-11T17:36:19.493Z,71.63
2022-09-11T17:38:53.275Z,72.73
2022-09-11T17:41:23.804Z,72.41
2022-09-11T17:43:53.440Z,72.34
2022-09-11T17:46:25.143Z,72.57
2022-09-11T17:48:54.864Z,72.65
2022-09-11T17:51:27.957Z,71.80
2022-09-11T17:54:01.474Z,72.40
2022-09-11T17:56:33.599Z,72.04
2022-09-11T17:59:03.751Z,71.46
2022-09-11T18:01:33.334Z,72.51
2022-09-11T18:04:03.230Z,73.45
2022-09-11T18:06:36.427Z,73.82
2022-09-11T18:09:12.238Z,74.60
2022-09-11T18:11:42.782Z,73.86
2022-09-11T18:14:13.925Z,73.60
2022-09-11T18:16:45.302Z,73.19
2022-09-11T18:19:16.398Z,73.77
2022-09-11T18:21:49.930Z,74.17
2022-09-11T18:24:22.853Z,74.03
2022-09-11T18:26:58.547Z,74.72
2022-09-11T18:29:30.737Z,74.97
2022-09-11T18:32:00.718Z,75.48
2022-09-11T18:34:31.260Z,75.55
2022-09-11T18:37:01.213Z,75.23
2022-09-11T18:39:34.011Z,76.19
2022-09-11T18:42:07.182Z,76.77
2022-09-11T18:44:37.042Z,76.14
2022-09-11T18:47:06.880Z,76.40
2022-09-11T18:49:36.551Z,76.77
2022-09-11T18:52:07.344Z,76.92
2022-09-11T18:54:39.598Z,77.16
2022-09-11T18:57:09.360Z,78.02
2022-09-11T18:59:39.563Z,78.40
2022-09-11T19:02:09.607Z,78.06
2022-09-11T19:04:39.444Z,77.70
2022-09-11T19:07:10.218Z,78.60
2022-09-11T19:09:45.793Z,79.65
2022-09-11T19:12:16.001Z,80.16
2022-09-11T19:14:45.656Z,80.68
2022-09-11T19:17:15.291Z,80.13
2022-09-11T19:19:45.025Z,77.27
2022-09-11T19:22:15.000Z,77.57
2022-09-11T19:24:47.301Z,76.57
2022-09-11T19:27:17.061Z,77.22
2022-09-11T19:29:46.932Z,77.59
2022-09-11T19:32:17.769Z,78.64
2022-09-11T19:34:47.567Z,79.53
2022-09-11T19:37:17.380Z,80.08
2022-09-11T19:39:50.896Z,80.15
2022-09-11T19:42:21.185Z,80.82
2022-09-11T19:44:54.373Z,80.91
2022-09-11T19:47:26.573Z,81.69
2022-09-11T19:49:56.273Z,83.92
2022-09-11T19:52:29.717Z,84.75
2022-09-11T19:55:04.604Z,84.59
2022-09-11T19:57:34.260Z,85.07
2022-09-11T20:00:04.127Z,85.26
2022-09-11T20:02:33.811Z,82.56
2022-09-11T20:05:03.974Z,82.34
2022-09-11T20:07:33.864Z,82.18
2022-09-11T20:10:07.206Z,83.33
2022-09-11T20:12:37.340Z,84.17
2022-09-11T20:15:07.236Z,85.89
2022-09-11T20:17:36.942Z,85.85
2022-09-11T20:20:07.110Z,85.29
2022-09-11T20:22:36.850Z,83.49
2022-09-11T20:25:09.876Z,82.84
2022-09-11T20:27:39.606Z,84.00
2022-09-11T20:30:10.423Z,84.06
2022-09-11T20:32:40.748Z,83.72
2022-09-11T20:35:11.226Z,84.23
2022-09-11T20:37:40.892Z,84.92
2022-09-11T20:40:14.989Z,85.98
2022-09-11T20:42:44.669Z,85.48
2022-09-11T20:45:14.566Z,85.14
2022-09-11T20:47:44.114Z,84.52
2022-09-11T20:50:13.926Z,84.82
2022-09-11T20:52:46.695Z,85.97
2022-09-11T20:55:18.900Z,85.82
2022-09-11T20:57:48.466Z,85.09
2022-09-11T21:00:18.627Z,84.90
2022-09-11T21:02:48.255Z,84.15
2022-09-11T21:05:17.961Z,84.01
2022-09-11T21:07:47.522Z,84.13
2022-09-11T21:10:19.737Z,84.25
2022-09-11T21:12:49.285Z,84.38
2022-09-11T21:15:19.094Z,85.18
2022-09-11T21:17:51.613Z,84.84
2022-09-11T21:20:21.174Z,85.89
2022-09-11T21:22:50.789Z,85.32
2022-09-11T21:25:23.021Z,84.63
2022-09-11T21:27:52.694Z,84.07
2022-09-11T21:30:22.480Z,83.85
2022-09-11T21:32:52.176Z,84.12
2022-09-11T21:35:21.797Z,84.68
2022-09-11T21:37:51.457Z,84.74
2022-09-11T21:40:24.562Z,84.06
2022-09-11T21:42:54.197Z,84.50
2022-09-11T21:45:23.827Z,84.40
2022-09-11T21:47:53.492Z,86.82
2022-09-11T21:50:23.265Z,86.63
2022-09-11T21:52:52.952Z,87.57
2022-09-11T21:55:26.213Z,88.04
2022-09-11T21:57:55.857Z,87.06
2022-09-11T22:00:25.583Z,87.23
2022-09-11T22:02:55.210Z,85.91
2022-09-11T22:05:24.945Z,87.01
2022-09-11T22:07:54.557Z,86.27
2022-09-11T22:10:27.271Z,86.97
2022-09-11T22:12:56.941Z,86.65
2022-09-11T22:15:26.722Z,87.11
2022-09-11T22:17:56.593Z,86.22
2022-09-11T22:20:26.416Z,86.64
2022-09-11T22:22:58.873Z,85.13
2022-09-11T22:25:31.258Z,85.14
2022-09-11T22:28:00.905Z,85.97
2022-09-11T22:30:30.778Z,85.61
2022-09-11T22:33:00.655Z,85.95
2022-09-11T22:35:31.112Z,85.30
2022-09-11T22:38:00.751Z,84.95
2022-09-11T22:40:33.055Z,85.40
2022-09-11T22:43:02.996Z,85.53
2022-09-11T22:45:32.846Z,85.27
2022-09-11T22:48:02.945Z,85.26
2022-09-11T22:50:32.681Z,87.18
2022-09-11T22:53:02.393Z,88.57
2022-09-11T22:55:34.596Z,88.78
2022-09-11T22:58:04.463Z,89.39
2022-09-11T23:00:34.098Z,89.81
2022-09-11T23:03:03.781Z,90.10
2022-09-11T23:05:45.871Z,91.33
2022-09-11T23:08:15.505Z,91.96
2022-09-11T23:10:49.409Z,92.47
2022-09-11T23:13:19.025Z,93.20
2022-09-11T23:15:48.672Z,91.47
2022-09-11T23:18:18.948Z,90.54
2022-09-11T23:20:48.699Z,90.44
2022-09-11T23:23:18.311Z,90.46
2022-09-11T23:25:51.068Z,91.07
2022-09-11T23:28:21.341Z,91.13
2022-09-11T23:30:51.022Z,90.68
2022-09-11T23:33:20.654Z,92.70
2022-09-11T23:35:50.370Z,92.19
2022-09-11T23:38:20.006Z,90.30
2022-09-11T23:40:53.073Z,90.20
2022-09-11T23:43:22.707Z,90.82
2022-09-11T23:45:52.389Z,91.95
2022-09-11T23:48:22.101Z,91.39
2022-09-11T23:50:51.760Z,90.47
2022-09-11T23:53:21.769Z,90.51
2022-09-11T23:55:54.121Z,90.64
2022-09-11T23:58:23.792Z,90.89
